TRA6681 EHEH-LOWI
Flight info
| Callsign | TRA6681 |
|---|---|
| Flight time | 1h 5m |
| Altitude | 39000 |
| Route | VELNI DCT ONUNE DCT GMH DCT DODEN DCT TABUM DCT HAREM T104 ELMOX T104 WLD M867 BAVAX Z106 MANAL M736 TULSI TULSI3A |
| Aircraft | B738/M-SDE2E3FGHIRWXY/LB1 |
Departure
| Time | 2026-05-08 08:18 |
|---|---|
| Airport | Eindhoven Airport (EHEH) |
Arrival
| Time | 2026-05-08 09:23 |
|---|---|
| Airport | Innsbruck Airport (LOWI) |
| Time | Latitude | Longitude | Altitude | Speed | Heading |
|---|---|---|---|---|---|
| 2026-05-08 08:08 | 51.45648 | 5.38823 | 74 ft | 1 kts | 125° |
| 2026-05-08 08:09 | 51.45661 | 5.38796 | 62 ft | 4 kts | 130° |
| 2026-05-08 08:09 | 51.45677 | 5.38763 | 74 ft | 4 kts | 112° |
| 2026-05-08 08:09 | 51.45683 | 5.38729 | 65 ft | 4 kts | 83° |
| 2026-05-08 08:10 | 51.45672 | 5.38698 | 66 ft | 4 kts | 33° |
| 2026-05-08 08:10 | 51.45661 | 5.38687 | 65 ft | 1 kts | 35° |
| 2026-05-08 08:11 | 51.45666 | 5.38693 | 64 ft | 3 kts | 35° |
| 2026-05-08 08:11 | 51.45709 | 5.38741 | 65 ft | 10 kts | 35° |
| 2026-05-08 08:11 | 51.45777 | 5.38783 | 70 ft | 11 kts | 345° |
| 2026-05-08 08:12 | 51.45829 | 5.38695 | 70 ft | 11 kts | 304° |
| 2026-05-08 08:12 | 51.45879 | 5.38579 | 75 ft | 14 kts | 306° |
| 2026-05-08 08:12 | 51.45945 | 5.38430 | 76 ft | 18 kts | 306° |
| 2026-05-08 08:12 | 51.45989 | 5.38277 | 70 ft | 15 kts | 246° |
| 2026-05-08 08:13 | 51.45911 | 5.38178 | 66 ft | 14 kts | 214° |
| 2026-05-08 08:13 | 51.45820 | 5.38076 | 74 ft | 18 kts | 215° |
| 2026-05-08 08:13 | 51.45709 | 5.37953 | 74 ft | 21 kts | 214° |
| 2026-05-08 08:13 | 51.45579 | 5.37807 | 70 ft | 24 kts | 216° |
| 2026-05-08 08:14 | 51.45433 | 5.37643 | 70 ft | 27 kts | 214° |
| 2026-05-08 08:14 | 51.45279 | 5.37471 | 71 ft | 26 kts | 215° |
| 2026-05-08 08:14 | 51.45134 | 5.37308 | 68 ft | 25 kts | 215° |
| 2026-05-08 08:14 | 51.44999 | 5.37156 | 74 ft | 23 kts | 215° |
| 2026-05-08 08:15 | 51.44870 | 5.37011 | 68 ft | 22 kts | 215° |
| 2026-05-08 08:15 | 51.44744 | 5.36870 | 71 ft | 22 kts | 215° |
| 2026-05-08 08:15 | 51.44658 | 5.36775 | 71 ft | 23 kts | 215° |
| 2026-05-08 08:15 | 51.44520 | 5.36620 | 69 ft | 26 kts | 214° |
| 2026-05-08 08:16 | 51.44369 | 5.36452 | 66 ft | 26 kts | 215° |
| 2026-05-08 08:16 | 51.44225 | 5.36291 | 67 ft | 24 kts | 215° |
| 2026-05-08 08:16 | 51.44090 | 5.36141 | 71 ft | 23 kts | 215° |
| 2026-05-08 08:16 | 51.43975 | 5.36107 | 71 ft | 17 kts | 137° |
| 2026-05-08 08:17 | 51.43948 | 5.36249 | 72 ft | 13 kts | 63° |
| 2026-05-08 08:17 | 51.44048 | 5.36369 | 66 ft | 38 kts | 35° |
| 2026-05-08 08:17 | 51.44465 | 5.36837 | 68 ft | 106 kts | 35° |
| 2026-05-08 08:17 | 51.45230 | 5.37697 | 94 ft | 159 kts | 38° |
| 2026-05-08 08:18 | 51.46149 | 5.38753 | 682 ft | 166 kts | 38° |
| 2026-05-08 08:18 | 51.47114 | 5.39849 | 1377 ft | 174 kts | 35° |
| 2026-05-08 08:18 | 51.48122 | 5.40966 | 2123 ft | 178 kts | 36° |
| 2026-05-08 08:18 | 51.49145 | 5.42105 | 2876 ft | 179 kts | 35° |
| 2026-05-08 08:19 | 51.50226 | 5.43311 | 3273 ft | 202 kts | 34° |
| 2026-05-08 08:19 | 51.51224 | 5.45027 | 3481 ft | 223 kts | 68° |
| 2026-05-08 08:19 | 51.51293 | 5.47538 | 3790 ft | 239 kts | 104° |
| 2026-05-08 08:19 | 51.50779 | 5.50208 | 4090 ft | 259 kts | 106° |
| 2026-05-08 08:20 | 51.50266 | 5.53010 | 4846 ft | 263 kts | 105° |
| 2026-05-08 08:20 | 51.49771 | 5.55843 | 5659 ft | 265 kts | 105° |
| 2026-05-08 08:20 | 51.49294 | 5.58688 | 6382 ft | 270 kts | 103° |
| 2026-05-08 08:20 | 51.48876 | 5.61685 | 7124 ft | 273 kts | 102° |
| 2026-05-08 08:21 | 51.48486 | 5.64659 | 7837 ft | 277 kts | 100° |
| 2026-05-08 08:21 | 51.48453 | 5.67780 | 8549 ft | 281 kts | 83° |
| 2026-05-08 08:21 | 51.48722 | 5.70906 | 9269 ft | 285 kts | 82° |
| 2026-05-08 08:21 | 51.49009 | 5.74087 | 9956 ft | 291 kts | 83° |
| 2026-05-08 08:22 | 51.49296 | 5.77324 | 10508 ft | 299 kts | 83° |
| 2026-05-08 08:22 | 51.49589 | 5.80752 | 10678 ft | 321 kts | 83° |
| 2026-05-08 08:22 | 51.49890 | 5.84378 | 10840 ft | 343 kts | 83° |
| 2026-05-08 08:22 | 51.50206 | 5.88253 | 11191 ft | 355 kts | 83° |
| 2026-05-08 08:23 | 51.50527 | 5.92259 | 11804 ft | 361 kts | 83° |
| 2026-05-08 08:23 | 51.50847 | 5.96282 | 12425 ft | 366 kts | 83° |
| 2026-05-08 08:23 | 51.51167 | 6.00341 | 13131 ft | 368 kts | 83° |
| 2026-05-08 08:23 | 51.51485 | 6.04400 | 13765 ft | 373 kts | 83° |
| 2026-05-08 08:24 | 51.51811 | 6.08575 | 14389 ft | 377 kts | 83° |
| 2026-05-08 08:24 | 51.52136 | 6.12760 | 15098 ft | 379 kts | 83° |
| 2026-05-08 08:24 | 51.52462 | 6.16985 | 15706 ft | 384 kts | 83° |
| 2026-05-08 08:24 | 51.52635 | 6.21277 | 16293 ft | 389 kts | 96° |
| 2026-05-08 08:25 | 51.52154 | 6.25533 | 16931 ft | 391 kts | 102° |
| 2026-05-08 08:25 | 51.51579 | 6.29826 | 17543 ft | 396 kts | 103° |
| 2026-05-08 08:25 | 51.50994 | 6.34180 | 18135 ft | 400 kts | 102° |
| 2026-05-08 08:25 | 51.50413 | 6.38572 | 18682 ft | 405 kts | 102° |
| 2026-05-08 08:26 | 51.49835 | 6.43013 | 19238 ft | 408 kts | 102° |
| 2026-05-08 08:26 | 51.49260 | 6.47473 | 19797 ft | 410 kts | 102° |
| 2026-05-08 08:26 | 51.48692 | 6.51917 | 20330 ft | 413 kts | 102° |
| 2026-05-08 08:26 | 51.48112 | 6.56459 | 20861 ft | 417 kts | 102° |
| 2026-05-08 08:27 | 51.47527 | 6.61030 | 21383 ft | 420 kts | 102° |
| 2026-05-08 08:27 | 51.46937 | 6.65635 | 21895 ft | 423 kts | 102° |
| 2026-05-08 08:27 | 51.46341 | 6.70267 | 22401 ft | 426 kts | 102° |
| 2026-05-08 08:27 | 51.45738 | 6.74941 | 22907 ft | 429 kts | 102° |
| 2026-05-08 08:28 | 51.45210 | 6.79020 | 23330 ft | 432 kts | 102° |
| 2026-05-08 08:28 | 51.44596 | 6.83748 | 23786 ft | 435 kts | 103° |
| 2026-05-08 08:28 | 51.43974 | 6.88512 | 24182 ft | 438 kts | 103° |
| 2026-05-08 08:28 | 51.43354 | 6.93259 | 24588 ft | 440 kts | 103° |
| 2026-05-08 08:29 | 51.42723 | 6.98066 | 24982 ft | 442 kts | 103° |
| 2026-05-08 08:29 | 51.42085 | 7.02906 | 25366 ft | 445 kts | 103° |
| 2026-05-08 08:29 | 51.41443 | 7.07767 | 25737 ft | 447 kts | 103° |
| 2026-05-08 08:29 | 51.40795 | 7.12652 | 26112 ft | 450 kts | 103° |
| 2026-05-08 08:30 | 51.40139 | 7.17587 | 26476 ft | 452 kts | 103° |
| 2026-05-08 08:30 | 51.39480 | 7.22520 | 26823 ft | 455 kts | 103° |
| 2026-05-08 08:30 | 51.38147 | 7.32471 | 27505 ft | 460 kts | 103° |
| 2026-05-08 08:31 | 51.37455 | 7.37479 | 27837 ft | 461 kts | 105° |
| 2026-05-08 08:31 | 51.36420 | 7.42333 | 28142 ft | 462 kts | 115° |
| 2026-05-08 08:31 | 51.34934 | 7.46826 | 28465 ft | 462 kts | 124° |
| 2026-05-08 08:31 | 51.33136 | 7.51112 | 28788 ft | 463 kts | 126° |
| 2026-05-08 08:32 | 51.31311 | 7.55364 | 29070 ft | 466 kts | 126° |
| 2026-05-08 08:32 | 51.29478 | 7.59656 | 29363 ft | 468 kts | 126° |
| 2026-05-08 08:32 | 51.27652 | 7.63977 | 29656 ft | 470 kts | 126° |
| 2026-05-08 08:32 | 51.25832 | 7.68324 | 29936 ft | 472 kts | 125° |
| 2026-05-08 08:33 | 51.24013 | 7.72691 | 30319 ft | 471 kts | 125° |
| 2026-05-08 08:33 | 51.22201 | 7.77038 | 30713 ft | 469 kts | 126° |
| 2026-05-08 08:33 | 51.20394 | 7.81358 | 31066 ft | 468 kts | 126° |
| 2026-05-08 08:33 | 51.18423 | 7.85474 | 31322 ft | 466 kts | 137° |
| 2026-05-08 08:34 | 51.15895 | 7.88654 | 31591 ft | 461 kts | 152° |
| 2026-05-08 08:34 | 51.13016 | 7.90790 | 31951 ft | 455 kts | 165° |
| 2026-05-08 08:34 | 51.09957 | 7.91978 | 32320 ft | 450 kts | 171° |
| 2026-05-08 08:34 | 51.06892 | 7.92997 | 32627 ft | 450 kts | 171° |
| 2026-05-08 08:35 | 51.03828 | 7.94011 | 32852 ft | 451 kts | 171° |
| 2026-05-08 08:35 | 51.00753 | 7.95049 | 33145 ft | 451 kts | 171° |
| 2026-05-08 08:35 | 50.97689 | 7.96107 | 33500 ft | 450 kts | 171° |
| 2026-05-08 08:35 | 50.94641 | 7.97176 | 33830 ft | 449 kts | 171° |
| 2026-05-08 08:36 | 50.91592 | 7.98254 | 34121 ft | 448 kts | 171° |
| 2026-05-08 08:36 | 50.88591 | 7.99317 | 34359 ft | 448 kts | 171° |
| 2026-05-08 08:36 | 50.85551 | 8.00394 | 34568 ft | 448 kts | 171° |
| 2026-05-08 08:36 | 50.82499 | 8.01473 | 34747 ft | 449 kts | 171° |
| 2026-05-08 08:37 | 50.79446 | 8.02549 | 34950 ft | 450 kts | 171° |
| 2026-05-08 08:37 | 50.76397 | 8.03623 | 35206 ft | 449 kts | 171° |
| 2026-05-08 08:37 | 50.73354 | 8.04693 | 35441 ft | 448 kts | 171° |
| 2026-05-08 08:37 | 50.70298 | 8.05766 | 35644 ft | 449 kts | 171° |
| 2026-05-08 08:38 | 50.67249 | 8.06835 | 35838 ft | 449 kts | 171° |
| 2026-05-08 08:38 | 50.64192 | 8.07905 | 36060 ft | 448 kts | 171° |
| 2026-05-08 08:38 | 50.61168 | 8.09162 | 36282 ft | 451 kts | 163° |
| 2026-05-08 08:38 | 50.58279 | 8.11113 | 36449 ft | 455 kts | 154° |
| 2026-05-08 08:39 | 50.55572 | 8.13732 | 36647 ft | 457 kts | 150° |
| 2026-05-08 08:39 | 50.52914 | 8.16477 | 36849 ft | 457 kts | 149° |
| 2026-05-08 08:39 | 50.50260 | 8.19230 | 37042 ft | 457 kts | 149° |
| 2026-05-08 08:39 | 50.47593 | 8.21969 | 37243 ft | 457 kts | 150° |
| 2026-05-08 08:40 | 50.44923 | 8.24679 | 37430 ft | 457 kts | 150° |
| 2026-05-08 08:40 | 50.42251 | 8.27368 | 37612 ft | 457 kts | 150° |
| 2026-05-08 08:40 | 50.39576 | 8.30046 | 37800 ft | 456 kts | 150° |
| 2026-05-08 08:40 | 50.36895 | 8.32724 | 37983 ft | 456 kts | 150° |
| 2026-05-08 08:41 | 50.34255 | 8.35360 | 38111 ft | 456 kts | 150° |
| 2026-05-08 08:41 | 50.31541 | 8.38066 | 38265 ft | 457 kts | 150° |
| 2026-05-08 08:41 | 50.28934 | 8.40802 | 38424 ft | 458 kts | 145° |
| 2026-05-08 08:41 | 50.26511 | 8.44161 | 38567 ft | 461 kts | 139° |
| 2026-05-08 08:42 | 50.24222 | 8.47677 | 38725 ft | 461 kts | 138° |
| 2026-05-08 08:42 | 50.21982 | 8.51169 | 38836 ft | 461 kts | 138° |
| 2026-05-08 08:42 | 50.19710 | 8.54710 | 38940 ft | 462 kts | 138° |
| 2026-05-08 08:42 | 50.17429 | 8.58235 | 39053 ft | 461 kts | 138° |
| 2026-05-08 08:43 | 50.12838 | 8.65251 | 39123 ft | 464 kts | 139° |
| 2026-05-08 08:43 | 50.08207 | 8.72261 | 39120 ft | 463 kts | 139° |
| 2026-05-08 08:44 | 50.03585 | 8.79230 | 39130 ft | 462 kts | 139° |
| 2026-05-08 08:44 | 49.98959 | 8.86187 | 39128 ft | 462 kts | 139° |
| 2026-05-08 08:45 | 49.94331 | 8.93129 | 39124 ft | 462 kts | 139° |
| 2026-05-08 08:45 | 49.89707 | 9.00047 | 39123 ft | 462 kts | 139° |
| 2026-05-08 08:46 | 49.85071 | 9.06963 | 39118 ft | 462 kts | 139° |
| 2026-05-08 08:46 | 49.80440 | 9.13854 | 39113 ft | 461 kts | 139° |
| 2026-05-08 08:47 | 49.75811 | 9.20722 | 39126 ft | 461 kts | 139° |
| 2026-05-08 08:47 | 49.71169 | 9.27590 | 39117 ft | 462 kts | 139° |
| 2026-05-08 08:48 | 49.66523 | 9.34448 | 39119 ft | 462 kts | 140° |
| 2026-05-08 08:48 | 49.61872 | 9.41306 | 39116 ft | 463 kts | 138° |
| 2026-05-08 08:49 | 49.57569 | 9.48654 | 39108 ft | 465 kts | 134° |
| 2026-05-08 08:49 | 49.53356 | 9.56228 | 39118 ft | 465 kts | 134° |
| 2026-05-08 08:50 | 49.49115 | 9.63755 | 39125 ft | 466 kts | 134° |
| 2026-05-08 08:50 | 49.44816 | 9.71292 | 39129 ft | 466 kts | 134° |
| 2026-05-08 08:51 | 49.40562 | 9.78727 | 39129 ft | 466 kts | 134° |
| 2026-05-08 08:51 | 49.36268 | 9.86185 | 39120 ft | 466 kts | 135° |
| 2026-05-08 08:52 | 49.31936 | 9.93600 | 39128 ft | 466 kts | 135° |
| 2026-05-08 08:52 | 49.27606 | 10.00992 | 39132 ft | 466 kts | 135° |
| 2026-05-08 08:53 | 49.23270 | 10.08393 | 39129 ft | 466 kts | 135° |
| 2026-05-08 08:53 | 49.18936 | 10.15774 | 39122 ft | 466 kts | 135° |
| 2026-05-08 08:54 | 49.14638 | 10.23203 | 39113 ft | 466 kts | 135° |
| 2026-05-08 08:54 | 49.10246 | 10.30473 | 39144 ft | 465 kts | 137° |
| 2026-05-08 08:55 | 49.05761 | 10.37581 | 39141 ft | 465 kts | 137° |
| 2026-05-08 08:55 | 49.01302 | 10.44724 | 39151 ft | 464 kts | 136° |
| 2026-05-08 08:56 | 48.96826 | 10.51803 | 39155 ft | 463 kts | 137° |
| 2026-05-08 08:56 | 48.92342 | 10.58845 | 39144 ft | 463 kts | 137° |
| 2026-05-08 08:57 | 48.87932 | 10.65907 | 39149 ft | 463 kts | 136° |
| 2026-05-08 08:57 | 48.83445 | 10.73072 | 38658 ft | 471 kts | 137° |
| 2026-05-08 08:58 | 48.81182 | 10.76666 | 38067 ft | 469 kts | 137° |
| 2026-05-08 08:58 | 48.78952 | 10.80183 | 37502 ft | 467 kts | 137° |
| 2026-05-08 08:58 | 48.76697 | 10.83700 | 36935 ft | 464 kts | 137° |
| 2026-05-08 08:58 | 48.74447 | 10.87200 | 36338 ft | 463 kts | 137° |
| 2026-05-08 08:59 | 48.72202 | 10.90692 | 35750 ft | 462 kts | 137° |
| 2026-05-08 08:59 | 48.69963 | 10.94175 | 35103 ft | 462 kts | 137° |
| 2026-05-08 08:59 | 48.67721 | 10.97661 | 34482 ft | 462 kts | 137° |
| 2026-05-08 08:59 | 48.66234 | 10.99972 | 34060 ft | 462 kts | 137° |
| 2026-05-08 09:00 | 48.63988 | 11.03462 | 33296 ft | 463 kts | 137° |
| 2026-05-08 09:00 | 48.61743 | 11.06946 | 32697 ft | 460 kts | 137° |
| 2026-05-08 09:00 | 48.59523 | 11.10388 | 32221 ft | 455 kts | 137° |
| 2026-05-08 09:00 | 48.57334 | 11.13817 | 31735 ft | 452 kts | 136° |
| 2026-05-08 09:01 | 48.55241 | 11.17339 | 31271 ft | 448 kts | 134° |
| 2026-05-08 09:01 | 48.53215 | 11.20891 | 30804 ft | 445 kts | 134° |
| 2026-05-08 09:01 | 48.51218 | 11.24435 | 30347 ft | 441 kts | 134° |
| 2026-05-08 09:01 | 48.49236 | 11.27944 | 29848 ft | 438 kts | 134° |
| 2026-05-08 09:02 | 48.47262 | 11.31414 | 29333 ft | 434 kts | 134° |
| 2026-05-08 09:02 | 48.45306 | 11.34828 | 28888 ft | 429 kts | 134° |
| 2026-05-08 09:02 | 48.43357 | 11.38214 | 28425 ft | 424 kts | 134° |
| 2026-05-08 09:02 | 48.41430 | 11.41550 | 27964 ft | 421 kts | 134° |
| 2026-05-08 09:03 | 48.39514 | 11.44862 | 27507 ft | 417 kts | 134° |
| 2026-05-08 09:03 | 48.37618 | 11.48134 | 27055 ft | 414 kts | 134° |
| 2026-05-08 09:03 | 48.35730 | 11.51389 | 26605 ft | 411 kts | 134° |
| 2026-05-08 09:03 | 48.33858 | 11.54615 | 26167 ft | 408 kts | 134° |
| 2026-05-08 09:04 | 48.31995 | 11.57822 | 25729 ft | 405 kts | 134° |
| 2026-05-08 09:04 | 48.30148 | 11.60997 | 25295 ft | 403 kts | 134° |
| 2026-05-08 09:04 | 48.28309 | 11.64095 | 24865 ft | 399 kts | 138° |
| 2026-05-08 09:04 | 48.26164 | 11.66662 | 24425 ft | 391 kts | 152° |
| 2026-05-08 09:05 | 48.23740 | 11.68452 | 23955 ft | 386 kts | 163° |
| 2026-05-08 09:05 | 48.21170 | 11.69496 | 23511 ft | 380 kts | 171° |
| 2026-05-08 09:05 | 48.18588 | 11.70345 | 23007 ft | 378 kts | 171° |
| 2026-05-08 09:05 | 48.16054 | 11.71168 | 22550 ft | 376 kts | 171° |
| 2026-05-08 09:06 | 48.13501 | 11.72008 | 22105 ft | 373 kts | 171° |
| 2026-05-08 09:06 | 48.10973 | 11.72851 | 21672 ft | 370 kts | 171° |
| 2026-05-08 09:06 | 48.08468 | 11.73696 | 21245 ft | 368 kts | 170° |
| 2026-05-08 09:06 | 48.05978 | 11.74541 | 20824 ft | 365 kts | 170° |
| 2026-05-08 09:07 | 48.03506 | 11.75382 | 20393 ft | 363 kts | 170° |
| 2026-05-08 09:07 | 48.01047 | 11.76218 | 19983 ft | 361 kts | 170° |
| 2026-05-08 09:07 | 47.98606 | 11.77048 | 19571 ft | 359 kts | 170° |
| 2026-05-08 09:07 | 47.96199 | 11.77865 | 19167 ft | 357 kts | 170° |
| 2026-05-08 09:08 | 47.93784 | 11.78684 | 18756 ft | 356 kts | 170° |
| 2026-05-08 09:08 | 47.91363 | 11.79503 | 18332 ft | 355 kts | 170° |
| 2026-05-08 09:08 | 47.88925 | 11.80009 | 17845 ft | 351 kts | 181° |
| 2026-05-08 09:08 | 47.86497 | 11.79920 | 17428 ft | 347 kts | 185° |
| 2026-05-08 09:09 | 47.84093 | 11.79746 | 17011 ft | 345 kts | 185° |
| 2026-05-08 09:09 | 47.81722 | 11.79576 | 16587 ft | 342 kts | 185° |
| 2026-05-08 09:09 | 47.79348 | 11.79420 | 16194 ft | 340 kts | 185° |
| 2026-05-08 09:09 | 47.76995 | 11.79279 | 15796 ft | 338 kts | 184° |
| 2026-05-08 09:10 | 47.74650 | 11.79147 | 15399 ft | 336 kts | 184° |
| 2026-05-08 09:10 | 47.72318 | 11.79017 | 14995 ft | 335 kts | 184° |
| 2026-05-08 09:10 | 47.69993 | 11.79060 | 14592 ft | 336 kts | 172° |
| 2026-05-08 09:10 | 47.67742 | 11.80101 | 14079 ft | 341 kts | 161° |
| 2026-05-08 09:11 | 47.65524 | 11.81389 | 13553 ft | 341 kts | 160° |
| 2026-05-08 09:11 | 47.63317 | 11.82675 | 13126 ft | 339 kts | 160° |
| 2026-05-08 09:11 | 47.61120 | 11.83938 | 12702 ft | 337 kts | 160° |
| 2026-05-08 09:11 | 47.58985 | 11.85149 | 12541 ft | 327 kts | 160° |
| 2026-05-08 09:12 | 47.56886 | 11.86331 | 12379 ft | 318 kts | 160° |
| 2026-05-08 09:12 | 47.54845 | 11.87473 | 12262 ft | 309 kts | 161° |
| 2026-05-08 09:12 | 47.52863 | 11.88579 | 12150 ft | 299 kts | 161° |
| 2026-05-08 09:12 | 47.50943 | 11.89648 | 12051 ft | 289 kts | 161° |
| 2026-05-08 09:13 | 47.49084 | 11.90681 | 11952 ft | 280 kts | 161° |
| 2026-05-08 09:13 | 47.47281 | 11.91682 | 11859 ft | 271 kts | 161° |
| 2026-05-08 09:13 | 47.45540 | 11.92649 | 11752 ft | 263 kts | 161° |
| 2026-05-08 09:13 | 47.43850 | 11.93435 | 11645 ft | 252 kts | 176° |
| 2026-05-08 09:14 | 47.42175 | 11.93073 | 11583 ft | 240 kts | 202° |
| 2026-05-08 09:14 | 47.40647 | 11.91974 | 11298 ft | 249 kts | 212° |
| 2026-05-08 09:14 | 47.39168 | 11.90637 | 11042 ft | 249 kts | 212° |
| 2026-05-08 09:14 | 47.37696 | 11.89302 | 10797 ft | 246 kts | 212° |
| 2026-05-08 09:15 | 47.36253 | 11.88016 | 10526 ft | 242 kts | 211° |
| 2026-05-08 09:15 | 47.34815 | 11.86744 | 10226 ft | 239 kts | 213° |
| 2026-05-08 09:15 | 47.33677 | 11.85074 | 9940 ft | 233 kts | 243° |
| 2026-05-08 09:15 | 47.33121 | 11.82884 | 9694 ft | 225 kts | 255° |
| 2026-05-08 09:16 | 47.32758 | 11.80658 | 9411 ft | 222 kts | 258° |
| 2026-05-08 09:16 | 47.32433 | 11.78462 | 9051 ft | 221 kts | 258° |
| 2026-05-08 09:16 | 47.32105 | 11.76243 | 8686 ft | 222 kts | 258° |
| 2026-05-08 09:16 | 47.31775 | 11.74026 | 8311 ft | 219 kts | 258° |
| 2026-05-08 09:17 | 47.31453 | 11.71873 | 7969 ft | 211 kts | 258° |
| 2026-05-08 09:17 | 47.31141 | 11.69791 | 7614 ft | 205 kts | 258° |
| 2026-05-08 09:17 | 47.30838 | 11.67769 | 7281 ft | 199 kts | 258° |
| 2026-05-08 09:17 | 47.30546 | 11.65811 | 6969 ft | 192 kts | 258° |
| 2026-05-08 09:18 | 47.30265 | 11.63924 | 6661 ft | 184 kts | 258° |
| 2026-05-08 09:18 | 47.29994 | 11.62105 | 6330 ft | 178 kts | 257° |
| 2026-05-08 09:18 | 47.29732 | 11.60347 | 6033 ft | 174 kts | 257° |
| 2026-05-08 09:18 | 47.29474 | 11.58608 | 5756 ft | 175 kts | 257° |
| 2026-05-08 09:19 | 47.29213 | 11.56852 | 5457 ft | 175 kts | 258° |
| 2026-05-08 09:19 | 47.28963 | 11.55170 | 5206 ft | 164 kts | 258° |
| 2026-05-08 09:19 | 47.28723 | 11.53548 | 4894 ft | 156 kts | 258° |
| 2026-05-08 09:19 | 47.28495 | 11.52009 | 4644 ft | 156 kts | 258° |
| 2026-05-08 09:20 | 47.28265 | 11.50452 | 4405 ft | 156 kts | 258° |
| 2026-05-08 09:20 | 47.28034 | 11.48885 | 4153 ft | 157 kts | 258° |
| 2026-05-08 09:20 | 47.27803 | 11.47320 | 3878 ft | 154 kts | 258° |
| 2026-05-08 09:20 | 47.27576 | 11.45781 | 3622 ft | 153 kts | 258° |
| 2026-05-08 09:21 | 47.27338 | 11.44274 | 3379 ft | 153 kts | 253° |
| 2026-05-08 09:21 | 47.27010 | 11.42787 | 3147 ft | 153 kts | 252° |
| 2026-05-08 09:22 | 47.25958 | 11.33824 | 1903 ft | 93 kts | 261° |
| 2026-05-08 09:23 | 47.25896 | 11.33275 | 1900 ft | 16 kts | 254° |
| 2026-05-08 09:23 | 47.25843 | 11.33166 | 1903 ft | 11 kts | 249° |
| 2026-05-08 09:23 | 47.25886 | 11.33145 | 1903 ft | 11 kts | 66° |
| 2026-05-08 09:23 | 47.25899 | 11.33258 | 1898 ft | 12 kts | 82° |
| 2026-05-08 09:24 | 47.25916 | 11.33418 | 1899 ft | 18 kts | 81° |
| 2026-05-08 09:24 | 47.25935 | 11.33603 | 1899 ft | 20 kts | 81° |
| 2026-05-08 09:24 | 47.25959 | 11.33821 | 1903 ft | 22 kts | 81° |